sensor_id;sensor_type;location;lat;lon;timestamp;temperature;humidity
10046;DHT22;5063;50.878;4.742;2022-11-15T00:00:46;11.90;99.90
10046;DHT22;5063;50.878;4.742;2022-11-15T00:03:21;12.00;99.90
10046;DHT22;5063;50.878;4.742;2022-11-15T00:05:48;12.10;99.90
10046;DHT22;5063;50.878;4.742;2022-11-15T00:08:14;12.10;99.90
10046;DHT22;5063;50.878;4.742;2022-11-15T00:10:40;12.10;99.90
10046;DHT22;5063;50.878;4.742;2022-11-15T00:13:07;12.20;99.90
10046;DHT22;5063;50.878;4.742;2022-11-15T00:15:40;12.20;99.90
10046;DHT22;5063;50.878;4.742;2022-11-15T00:18:11;12.30;99.90
10046;DHT22;5063;50.878;4.742;2022-11-15T00:20:37;12.30;99.90
10046;DHT22;5063;50.878;4.742;2022-11-15T00:23:04;12.30;99.90
10046;DHT22;5063;50.878;4.742;2022-11-15T00:25:30;12.40;99.90
10046;DHT22;5063;50.878;4.742;2022-11-15T00:27:56;12.30;99.90
10046;DHT22;5063;50.878;4.742;2022-11-15T00:30:22;12.40;99.90
10046;DHT22;5063;50.878;4.742;2022-11-15T00:32:48;12.40;99.90
10046;DHT22;5063;50.878;4.742;2022-11-15T00:35:14;12.40;99.90
10046;DHT22;5063;50.878;4.742;2022-11-15T00:37:40;12.40;99.90
10046;DHT22;5063;50.878;4.742;2022-11-15T00:40:08;12.50;99.90
10046;DHT22;5063;50.878;4.742;2022-11-15T00:42:34;12.50;99.90
10046;DHT22;5063;50.878;4.742;2022-11-15T00:44:59;12.50;99.90
10046;DHT22;5063;50.878;4.742;2022-11-15T00:47:25;12.50;99.90
10046;DHT22;5063;50.878;4.742;2022-11-15T00:49:51;12.50;99.90
10046;DHT22;5063;50.878;4.742;2022-11-15T00:52:16;12.50;99.90
10046;DHT22;5063;50.878;4.742;2022-11-15T00:54:42;12.50;99.90
10046;DHT22;5063;50.878;4.742;2022-11-15T00:57:08;12.60;99.90
10046;DHT22;5063;50.878;4.742;2022-11-15T00:59:34;12.60;99.90
10046;DHT22;5063;50.878;4.742;2022-11-15T01:02:00;12.60;99.90
10046;DHT22;5063;50.878;4.742;2022-11-15T01:04:26;12.60;99.90
10046;DHT22;5063;50.878;4.742;2022-11-15T01:06:52;12.60;99.90
10046;DHT22;5063;50.878;4.742;2022-11-15T01:09:18;12.60;99.90
10046;DHT22;5063;50.878;4.742;2022-11-15T01:11:44;12.60;99.90
10046;DHT22;5063;50.878;4.742;2022-11-15T01:14:09;12.60;99.90
10046;DHT22;5063;50.878;4.742;2022-11-15T01:16:35;12.60;99.90
10046;DHT22;5063;50.878;4.742;2022-11-15T01:19:01;12.60;99.90
10046;DHT22;5063;50.878;4.742;2022-11-15T01:21:26;12.60;99.90
10046;DHT22;5063;50.878;4.742;2022-11-15T01:23:53;12.60;99.90
10046;DHT22;5063;50.878;4.742;2022-11-15T01:26:21;12.60;99.90
10046;DHT22;5063;50.878;4.742;2022-11-15T01:28:47;12.70;99.90
10046;DHT22;5063;50.878;4.742;2022-11-15T01:31:15;12.70;99.90
10046;DHT22;5063;50.878;4.742;2022-11-15T01:33:41;12.70;99.90
10046;DHT22;5063;50.878;4.742;2022-11-15T01:36:11;12.70;99.90
10046;DHT22;5063;50.878;4.742;2022-11-15T01:38:37;12.70;99.90
10046;DHT22;5063;50.878;4.742;2022-11-15T01:41:03;12.70;99.90
10046;DHT22;5063;50.878;4.742;2022-11-15T01:43:34;12.80;99.90
10046;DHT22;5063;50.878;4.742;2022-11-15T01:46:02;12.70;99.90
10046;DHT22;5063;50.878;4.742;2022-11-15T01:48:33;12.80;99.90
10046;DHT22;5063;50.878;4.742;2022-11-15T01:51:01;12.80;99.90
10046;DHT22;5063;50.878;4.742;2022-11-15T01:53:29;12.70;99.90
10046;DHT22;5063;50.878;4.742;2022-11-15T01:55:57;12.70;99.90
10046;DHT22;5063;50.878;4.742;2022-11-15T01:58:24;12.70;99.90
10046;DHT22;5063;50.878;4.742;2022-11-15T02:00:50;12.80;99.90
10046;DHT22;5063;50.878;4.742;2022-11-15T02:03:17;12.80;99.90
10046;DHT22;5063;50.878;4.742;2022-11-15T02:05:43;12.80;99.90
10046;DHT22;5063;50.878;4.742;2022-11-15T02:08:10;12.80;99.90
10046;DHT22;5063;50.878;4.742;2022-11-15T02:10:46;12.80;99.90
10046;DHT22;5063;50.878;4.742;2022-11-15T02:13:14;12.80;99.90
10046;DHT22;5063;50.878;4.742;2022-11-15T02:15:51;12.90;99.90
10046;DHT22;5063;50.878;4.742;2022-11-15T02:18:29;12.90;99.90
10046;DHT22;5063;50.878;4.742;2022-11-15T02:21:07;12.80;99.90
10046;DHT22;5063;50.878;4.742;2022-11-15T02:29:27;13.00;99.90
10046;DHT22;5063;50.878;4.742;2022-11-15T02:34:54;12.90;99.90
10046;DHT22;5063;50.878;4.742;2022-11-15T02:37:51;12.90;99.90
10046;DHT22;5063;50.878;4.742;2022-11-15T02:40:50;12.90;99.90
10046;DHT22;5063;50.878;4.742;2022-11-15T02:43:24;12.90;99.90
10046;DHT22;5063;50.878;4.742;2022-11-15T02:49:13;12.90;99.90
10046;DHT22;5063;50.878;4.742;2022-11-15T02:51:41;12.90;99.90
10046;DHT22;5063;50.878;4.742;2022-11-15T02:54:12;12.90;99.90
10046;DHT22;5063;50.878;4.742;2022-11-15T02:56:39;13.00;99.90
10046;DHT22;5063;50.878;4.742;2022-11-15T03:02:14;12.90;99.90
10046;DHT22;5063;50.878;4.742;2022-11-15T03:07:16;12.90;99.90
10046;DHT22;5063;50.878;4.742;2022-11-15T03:10:05;12.90;99.90
10046;DHT22;5063;50.878;4.742;2022-11-15T03:12:59;12.90;99.90
10046;DHT22;5063;50.878;4.742;2022-11-15T03:15:35;12.90;99.90
10046;DHT22;5063;50.878;4.742;2022-11-15T03:18:10;12.80;99.90
10046;DHT22;5063;50.878;4.742;2022-11-15T03:20:39;12.90;99.90
10046;DHT22;5063;50.878;4.742;2022-11-15T03:23:07;12.90;99.90
10046;DHT22;5063;50.878;4.742;2022-11-15T03:25:34;12.80;99.90
10046;DHT22;5063;50.878;4.742;2022-11-15T03:28:04;12.80;99.90
10046;DHT22;5063;50.878;4.742;2022-11-15T03:30:32;12.90;99.90
10046;DHT22;5063;50.878;4.742;2022-11-15T03:33:00;12.90;99.90
10046;DHT22;5063;50.878;4.742;2022-11-15T03:35:30;12.80;99.90
10046;DHT22;5063;50.878;4.742;2022-11-15T03:40:40;12.80;99.90
10046;DHT22;5063;50.878;4.742;2022-11-15T03:45:56;12.70;99.90
10046;DHT22;5063;50.878;4.742;2022-11-15T03:48:25;12.80;99.90
10046;DHT22;5063;50.878;4.742;2022-11-15T03:50:53;12.70;99.90
10046;DHT22;5063;50.878;4.742;2022-11-15T03:53:19;12.70;99.90
10046;DHT22;5063;50.878;4.742;2022-11-15T03:55:45;12.70;99.90
10046;DHT22;5063;50.878;4.742;2022-11-15T03:58:11;12.70;99.90
10046;DHT22;5063;50.878;4.742;2022-11-15T04:00:36;12.70;99.90
10046;DHT22;5063;50.878;4.742;2022-11-15T04:03:02;12.70;99.90
10046;DHT22;5063;50.878;4.742;2022-11-15T04:05:28;12.60;99.90
10046;DHT22;5063;50.878;4.742;2022-11-15T04:07:53;12.60;99.90
10046;DHT22;5063;50.878;4.742;2022-11-15T04:10:19;12.60;99.90
10046;DHT22;5063;50.878;4.742;2022-11-15T04:12:46;12.50;99.90
10046;DHT22;5063;50.878;4.742;2022-11-15T04:15:18;12.50;99.90
10046;DHT22;5063;50.878;4.742;2022-11-15T04:17:47;12.50;99.90
10046;DHT22;5063;50.878;4.742;2022-11-15T04:23:06;12.50;99.90
10046;DHT22;5063;50.878;4.742;2022-11-15T04:25:52;12.50;99.90
10046;DHT22;5063;50.878;4.742;2022-11-15T04:28:19;12.50;99.90
10046;DHT22;5063;50.878;4.742;2022-11-15T04:30:45;12.50;99.90
10046;DHT22;5063;50.878;4.742;2022-11-15T04:33:11;12.50;99.90
10046;DHT22;5063;50.878;4.742;2022-11-15T04:35:37;12.50;99.90
10046;DHT22;5063;50.878;4.742;2022-11-15T04:38:04;12.50;99.90
10046;DHT22;5063;50.878;4.742;2022-11-15T04:40:30;12.40;99.90
10046;DHT22;5063;50.878;4.742;2022-11-15T04:42:57;12.40;99.90
10046;DHT22;5063;50.878;4.742;2022-11-15T04:45:23;12.30;99.90
10046;DHT22;5063;50.878;4.742;2022-11-15T04:47:48;12.30;99.90
10046;DHT22;5063;50.878;4.742;2022-11-15T04:50:15;12.20;99.90
10046;DHT22;5063;50.878;4.742;2022-11-15T04:52:42;12.20;99.90
10046;DHT22;5063;50.878;4.742;2022-11-15T04:55:11;12.20;99.90
10046;DHT22;5063;50.878;4.742;2022-11-15T04:57:37;12.20;99.90
10046;DHT22;5063;50.878;4.742;2022-11-15T05:00:05;12.10;99.90
10046;DHT22;5063;50.878;4.742;2022-11-15T05:02:31;12.10;99.90
10046;DHT22;5063;50.878;4.742;2022-11-15T05:05:17;12.10;99.90
10046;DHT22;5063;50.878;4.742;2022-11-15T05:07:42;12.10;99.90
10046;DHT22;5063;50.878;4.742;2022-11-15T05:10:08;12.00;99.90
10046;DHT22;5063;50.878;4.742;2022-11-15T05:12:35;11.90;99.90
10046;DHT22;5063;50.878;4.742;2022-11-15T05:15:01;11.90;99.90
10046;DHT22;5063;50.878;4.742;2022-11-15T05:17:26;11.80;99.90
10046;DHT22;5063;50.878;4.742;2022-11-15T05:19:52;11.80;99.90
10046;DHT22;5063;50.878;4.742;2022-11-15T05:22:18;11.70;99.90
10046;DHT22;5063;50.878;4.742;2022-11-15T05:24:44;11.80;99.90
10046;DHT22;5063;50.878;4.742;2022-11-15T05:27:10;11.80;99.90
10046;DHT22;5063;50.878;4.742;2022-11-15T05:29:36;11.70;99.90
10046;DHT22;5063;50.878;4.742;2022-11-15T05:32:04;11.70;99.90
10046;DHT22;5063;50.878;4.742;2022-11-15T05:34:30;11.70;99.90
10046;DHT22;5063;50.878;4.742;2022-11-15T05:36:56;11.70;99.90
10046;DHT22;5063;50.878;4.742;2022-11-15T05:39:22;11.70;99.90
10046;DHT22;5063;50.878;4.742;2022-11-15T05:41:51;11.80;99.90
10046;DHT22;5063;50.878;4.742;2022-11-15T05:44:21;11.70;99.90
10046;DHT22;5063;50.878;4.742;2022-11-15T05:46:48;11.60;99.90
10046;DHT22;5063;50.878;4.742;2022-11-15T05:49:17;11.60;99.90
10046;DHT22;5063;50.878;4.742;2022-11-15T05:51:47;11.60;99.90
10046;DHT22;5063;50.878;4.742;2022-11-15T05:54:14;11.50;99.90
10046;DHT22;5063;50.878;4.742;2022-11-15T05:56:40;11.40;99.90
10046;DHT22;5063;50.878;4.742;2022-11-15T05:59:07;11.30;99.90
10046;DHT22;5063;50.878;4.742;2022-11-15T06:01:33;11.10;99.90
10046;DHT22;5063;50.878;4.742;2022-11-15T06:03:59;11.00;99.90
10046;DHT22;5063;50.878;4.742;2022-11-15T06:06:27;10.90;99.90
10046;DHT22;5063;50.878;4.742;2022-11-15T06:08:53;10.80;99.90
10046;DHT22;5063;50.878;4.742;2022-11-15T06:11:19;10.80;99.90
10046;DHT22;5063;50.878;4.742;2022-11-15T06:13:44;10.80;99.90
10046;DHT22;5063;50.878;4.742;2022-11-15T06:16:10;10.90;99.90
10046;DHT22;5063;50.878;4.742;2022-11-15T06:18:36;10.90;99.90
10046;DHT22;5063;50.878;4.742;2022-11-15T06:21:02;10.90;99.90
10046;DHT22;5063;50.878;4.742;2022-11-15T06:23:31;10.90;99.90
10046;DHT22;5063;50.878;4.742;2022-11-15T06:26:01;10.80;99.90
10046;DHT22;5063;50.878;4.742;2022-11-15T06:28:33;10.70;99.90
10046;DHT22;5063;50.878;4.742;2022-11-15T06:31:07;10.60;99.90
10046;DHT22;5063;50.878;4.742;2022-11-15T06:33:34;10.50;99.90
10046;DHT22;5063;50.878;4.742;2022-11-15T06:36:10;10.50;99.90
10046;DHT22;5063;50.878;4.742;2022-11-15T06:38:39;10.20;99.90
10046;DHT22;5063;50.878;4.742;2022-11-15T06:41:07;10.20;99.90
10046;DHT22;5063;50.878;4.742;2022-11-15T06:43:34;10.20;99.90
10046;DHT22;5063;50.878;4.742;2022-11-15T06:46:01;10.20;99.90
10046;DHT22;5063;50.878;4.742;2022-11-15T06:48:28;10.20;99.90
10046;DHT22;5063;50.878;4.742;2022-11-15T06:50:56;10.10;99.90
10046;DHT22;5063;50.878;4.742;2022-11-15T06:53:23;10.10;99.90
10046;DHT22;5063;50.878;4.742;2022-11-15T06:55:48;10.00;99.90
10046;DHT22;5063;50.878;4.742;2022-11-15T06:58:14;10.00;99.90
10046;DHT22;5063;50.878;4.742;2022-11-15T07:00:41;10.00;99.90
10046;DHT22;5063;50.878;4.742;2022-11-15T07:03:07;10.00;99.90
10046;DHT22;5063;50.878;4.742;2022-11-15T07:05:33;10.00;99.90
10046;DHT22;5063;50.878;4.742;2022-11-15T07:07:59;9.90;99.90
10046;DHT22;5063;50.878;4.742;2022-11-15T07:10:25;9.90;99.90
10046;DHT22;5063;50.878;4.742;2022-11-15T07:12:51;9.90;99.90
10046;DHT22;5063;50.878;4.742;2022-11-15T07:15:19;10.00;99.90
10046;DHT22;5063;50.878;4.742;2022-11-15T07:17:45;10.00;99.90
10046;DHT22;5063;50.878;4.742;2022-11-15T07:20:12;10.10;99.90
10046;DHT22;5063;50.878;4.742;2022-11-15T07:22:39;10.00;99.90
10046;DHT22;5063;50.878;4.742;2022-11-15T07:25:05;10.10;99.90
10046;DHT22;5063;50.878;4.742;2022-11-15T07:27:31;10.00;99.90
10046;DHT22;5063;50.878;4.742;2022-11-15T07:29:56;10.00;99.90
10046;DHT22;5063;50.878;4.742;2022-11-15T07:32:22;9.90;99.90
10046;DHT22;5063;50.878;4.742;2022-11-15T07:34:48;9.90;99.90
10046;DHT22;5063;50.878;4.742;2022-11-15T07:37:13;10.00;99.90
10046;DHT22;5063;50.878;4.742;2022-11-15T07:39:39;10.00;99.90
10046;DHT22;5063;50.878;4.742;2022-11-15T07:42:05;10.10;99.90
10046;DHT22;5063;50.878;4.742;2022-11-15T07:44:49;10.00;99.90
10046;DHT22;5063;50.878;4.742;2022-11-15T07:47:15;10.10;99.90
10046;DHT22;5063;50.878;4.742;2022-11-15T07:49:40;10.20;99.90
10046;DHT22;5063;50.878;4.742;2022-11-15T07:52:06;10.10;99.90
10046;DHT22;5063;50.878;4.742;2022-11-15T07:54:32;10.10;99.90
10046;DHT22;5063;50.878;4.742;2022-11-15T07:56:57;10.20;99.90
10046;DHT22;5063;50.878;4.742;2022-11-15T07:59:23;10.20;99.90
10046;DHT22;5063;50.878;4.742;2022-11-15T08:01:49;10.30;99.90
10046;DHT22;5063;50.878;4.742;2022-11-15T08:04:14;10.40;99.90
10046;DHT22;5063;50.878;4.742;2022-11-15T08:06:40;10.50;99.90
10046;DHT22;5063;50.878;4.742;2022-11-15T08:09:06;10.40;99.90
10046;DHT22;5063;50.878;4.742;2022-11-15T08:11:31;10.60;99.90
10046;DHT22;5063;50.878;4.742;2022-11-15T08:13:58;10.50;99.90
10046;DHT22;5063;50.878;4.742;2022-11-15T08:16:24;10.60;99.90
10046;DHT22;5063;50.878;4.742;2022-11-15T08:18:49;10.50;99.90
10046;DHT22;5063;50.878;4.742;2022-11-15T08:21:19;10.50;99.90
10046;DHT22;5063;50.878;4.742;2022-11-15T08:23:45;10.40;99.90
10046;DHT22;5063;50.878;4.742;2022-11-15T08:26:11;10.40;99.90
10046;DHT22;5063;50.878;4.742;2022-11-15T08:28:37;10.40;99.90
10046;DHT22;5063;50.878;4.742;2022-11-15T08:31:03;10.50;99.90
10046;DHT22;5063;50.878;4.742;2022-11-15T08:33:30;10.50;99.90
10046;DHT22;5063;50.878;4.742;2022-11-15T08:35:57;10.50;99.90
10046;DHT22;5063;50.878;4.742;2022-11-15T08:38:23;10.50;99.90
10046;DHT22;5063;50.878;4.742;2022-11-15T08:40:51;10.60;99.90
10046;DHT22;5063;50.878;4.742;2022-11-15T08:43:17;10.60;99.90
10046;DHT22;5063;50.878;4.742;2022-11-15T08:45:43;10.70;99.90
10046;DHT22;5063;50.878;4.742;2022-11-15T08:48:09;10.70;99.90
10046;DHT22;5063;50.878;4.742;2022-11-15T08:50:35;10.80;99.90
10046;DHT22;5063;50.878;4.742;2022-11-15T08:53:05;10.80;99.90
10046;DHT22;5063;50.878;4.742;2022-11-15T08:55:31;10.90;99.90
10046;DHT22;5063;50.878;4.742;2022-11-15T08:57:57;10.90;99.90
10046;DHT22;5063;50.878;4.742;2022-11-15T09:00:23;10.90;99.90
10046;DHT22;5063;50.878;4.742;2022-11-15T09:02:49;11.00;99.90
10046;DHT22;5063;50.878;4.742;2022-11-15T09:05:15;11.10;99.90
10046;DHT22;5063;50.878;4.742;2022-11-15T09:07:44;11.20;99.90
10046;DHT22;5063;50.878;4.742;2022-11-15T09:10:09;11.40;99.90
10046;DHT22;5063;50.878;4.742;2022-11-15T09:12:35;11.40;99.90
10046;DHT22;5063;50.878;4.742;2022-11-15T09:15:01;11.60;99.90
10046;DHT22;5063;50.878;4.742;2022-11-15T09:17:27;11.70;99.90
10046;DHT22;5063;50.878;4.742;2022-11-15T09:19:53;11.80;99.90
10046;DHT22;5063;50.878;4.742;2022-11-15T09:22:19;11.90;99.90
10046;DHT22;5063;50.878;4.742;2022-11-15T09:24:44;11.80;99.90
10046;DHT22;5063;50.878;4.742;2022-11-15T09:27:10;12.10;99.90
10046;DHT22;5063;50.878;4.742;2022-11-15T09:29:36;12.10;99.90
10046;DHT22;5063;50.878;4.742;2022-11-15T09:32:01;12.10;99.90
10046;DHT22;5063;50.878;4.742;2022-11-15T09:34:27;12.10;99.90
10046;DHT22;5063;50.878;4.742;2022-11-15T09:36:53;12.10;99.90
10046;DHT22;5063;50.878;4.742;2022-11-15T09:39:18;12.30;99.90
10046;DHT22;5063;50.878;4.742;2022-11-15T09:41:53;12.30;99.90
10046;DHT22;5063;50.878;4.742;2022-11-15T09:47:51;12.40;99.90
10046;DHT22;5063;50.878;4.742;2022-11-15T09:50:41;12.30;99.90
10046;DHT22;5063;50.878;4.742;2022-11-15T09:53:12;12.20;99.90
10046;DHT22;5063;50.878;4.742;2022-11-15T09:56:05;12.20;99.90
10046;DHT22;5063;50.878;4.742;2022-11-15T10:04:14;12.40;99.90
10046;DHT22;5063;50.878;4.742;2022-11-15T10:06:44;12.50;99.90
10046;DHT22;5063;50.878;4.742;2022-11-15T10:11:40;12.60;99.90
10046;DHT22;5063;50.878;4.742;2022-11-15T10:14:19;12.80;99.90
10046;DHT22;5063;50.878;4.742;2022-11-15T10:19:30;12.70;99.90
10046;DHT22;5063;50.878;4.742;2022-11-15T10:22:13;12.70;99.90
10046;DHT22;5063;50.878;4.742;2022-11-15T10:24:43;12.70;99.90
10046;DHT22;5063;50.878;4.742;2022-11-15T10:27:12;12.70;99.90
10046;DHT22;5063;50.878;4.742;2022-11-15T10:29:50;12.70;99.90
10046;DHT22;5063;50.878;4.742;2022-11-15T10:32:20;12.90;99.90
10046;DHT22;5063;50.878;4.742;2022-11-15T10:34:48;13.10;99.90
10046;DHT22;5063;50.878;4.742;2022-11-15T10:37:14;13.40;99.90
10046;DHT22;5063;50.878;4.742;2022-11-15T10:39:40;13.30;99.90
10046;DHT22;5063;50.878;4.742;2022-11-15T10:42:26;13.30;99.90
10046;DHT22;5063;50.878;4.742;2022-11-15T10:44:53;13.20;99.90
10046;DHT22;5063;50.878;4.742;2022-11-15T10:49:59;13.30;99.90
10046;DHT22;5063;50.878;4.742;2022-11-15T10:52:26;13.40;99.90
10046;DHT22;5063;50.878;4.742;2022-11-15T10:55:01;13.50;99.90
10046;DHT22;5063;50.878;4.742;2022-11-15T10:57:38;13.40;99.90
10046;DHT22;5063;50.878;4.742;2022-11-15T11:00:27;13.60;99.90
10046;DHT22;5063;50.878;4.742;2022-11-15T11:03:34;13.70;99.90
10046;DHT22;5063;50.878;4.742;2022-11-15T11:06:13;13.70;99.90
10046;DHT22;5063;50.878;4.742;2022-11-15T11:08:40;13.80;99.90
10046;DHT22;5063;50.878;4.742;2022-11-15T11:11:07;13.90;99.90
10046;DHT22;5063;50.878;4.742;2022-11-15T11:13:39;13.80;99.90
10046;DHT22;5063;50.878;4.742;2022-11-15T11:16:09;13.80;99.90
10046;DHT22;5063;50.878;4.742;2022-11-15T11:35:20;13.90;99.90
10046;DHT22;5063;50.878;4.742;2022-11-15T11:37:55;14.00;99.90
10046;DHT22;5063;50.878;4.742;2022-11-15T11:40:49;14.10;99.90
10046;DHT22;5063;50.878;4.742;2022-11-15T11:46:37;14.20;99.90
10046;DHT22;5063;50.878;4.742;2022-11-15T11:49:09;14.20;99.90
10046;DHT22;5063;50.878;4.742;2022-11-15T11:51:43;14.30;99.90
10046;DHT22;5063;50.878;4.742;2022-11-15T11:56:54;14.50;99.90
10046;DHT22;5063;50.878;4.742;2022-11-15T11:59:28;14.60;99.90
10046;DHT22;5063;50.878;4.742;2022-11-15T12:01:57;14.60;99.90
10046;DHT22;5063;50.878;4.742;2022-11-15T12:04:39;14.70;99.90
10046;DHT22;5063;50.878;4.742;2022-11-15T12:07:27;14.70;99.90
10046;DHT22;5063;50.878;4.742;2022-11-15T12:10:22;14.70;99.90
10046;DHT22;5063;50.878;4.742;2022-11-15T12:13:11;14.80;99.90
10046;DHT22;5063;50.878;4.742;2022-11-15T12:16:12;14.80;99.90
10046;DHT22;5063;50.878;4.742;2022-11-15T12:18:42;14.90;99.90
10046;DHT22;5063;50.878;4.742;2022-11-15T12:21:45;15.00;99.90
10046;DHT22;5063;50.878;4.742;2022-11-15T12:24:37;15.10;99.90
10046;DHT22;5063;50.878;4.742;2022-11-15T12:27:42;15.00;99.90
10046;DHT22;5063;50.878;4.742;2022-11-15T12:30:13;15.10;99.90
10046;DHT22;5063;50.878;4.742;2022-11-15T12:32:47;15.00;99.90
10046;DHT22;5063;50.878;4.742;2022-11-15T12:35:27;14.80;99.90
10046;DHT22;5063;50.878;4.742;2022-11-15T12:37:55;14.80;99.90
10046;DHT22;5063;50.878;4.742;2022-11-15T12:45:46;14.60;99.90
10046;DHT22;5063;50.878;4.742;2022-11-15T12:50:53;14.60;99.90
10046;DHT22;5063;50.878;4.742;2022-11-15T13:07:05;14.70;99.90
10046;DHT22;5063;50.878;4.742;2022-11-15T13:22:51;15.10;99.90
10046;DHT22;5063;50.878;4.742;2022-11-15T13:25:24;15.30;99.90
10046;DHT22;5063;50.878;4.742;2022-11-15T13:27:52;15.30;99.90
10046;DHT22;5063;50.878;4.742;2022-11-15T13:30:22;15.30;99.90
10046;DHT22;5063;50.878;4.742;2022-11-15T13:32:48;15.30;99.90
10046;DHT22;5063;50.878;4.742;2022-11-15T13:35:22;15.20;99.90
10046;DHT22;5063;50.878;4.742;2022-11-15T13:37:49;15.30;99.90
10046;DHT22;5063;50.878;4.742;2022-11-15T13:40:27;15.30;99.90
10046;DHT22;5063;50.878;4.742;2022-11-15T13:42:56;15.30;99.90
10046;DHT22;5063;50.878;4.742;2022-11-15T13:45:22;15.10;99.90
10046;DHT22;5063;50.878;4.742;2022-11-15T13:47:54;15.10;99.90
10046;DHT22;5063;50.878;4.742;2022-11-15T13:50:26;15.00;99.90
10046;DHT22;5063;50.878;4.742;2022-11-15T13:52:53;14.80;99.90
10046;DHT22;5063;50.878;4.742;2022-11-15T13:55:23;14.70;99.90
10046;DHT22;5063;50.878;4.742;2022-11-15T13:58:01;14.70;99.90
10046;DHT22;5063;50.878;4.742;2022-11-15T14:00:42;14.80;99.90
10046;DHT22;5063;50.878;4.742;2022-11-15T14:03:24;14.70;99.90
10046;DHT22;5063;50.878;4.742;2022-11-15T14:06:04;14.70;99.90
10046;DHT22;5063;50.878;4.742;2022-11-15T14:08:32;14.70;99.90
10046;DHT22;5063;50.878;4.742;2022-11-15T14:11:18;14.70;99.90
10046;DHT22;5063;50.878;4.742;2022-11-15T14:16:36;14.60;99.90
10046;DHT22;5063;50.878;4.742;2022-11-15T14:19:04;14.80;99.90
10046;DHT22;5063;50.878;4.742;2022-11-15T14:21:30;14.80;99.90
10046;DHT22;5063;50.878;4.742;2022-11-15T14:24:16;14.70;99.90
10046;DHT22;5063;50.878;4.742;2022-11-15T14:26:42;14.60;99.90
10046;DHT22;5063;50.878;4.742;2022-11-15T14:29:24;14.70;99.90
10046;DHT22;5063;50.878;4.742;2022-11-15T14:31:51;14.60;99.90
10046;DHT22;5063;50.878;4.742;2022-11-15T14:34:16;14.60;99.90
10046;DHT22;5063;50.878;4.742;2022-11-15T14:36:42;14.50;99.90
10046;DHT22;5063;50.878;4.742;2022-11-15T14:39:08;14.40;99.90
10046;DHT22;5063;50.878;4.742;2022-11-15T14:41:36;14.40;99.90
10046;DHT22;5063;50.878;4.742;2022-11-15T14:44:05;14.20;99.90
10046;DHT22;5063;50.878;4.742;2022-11-15T14:46:32;14.00;99.90
10046;DHT22;5063;50.878;4.742;2022-11-15T14:48:58;14.00;99.90
10046;DHT22;5063;50.878;4.742;2022-11-15T14:51:23;14.00;99.90
10046;DHT22;5063;50.878;4.742;2022-11-15T14:53:49;13.90;99.90
10046;DHT22;5063;50.878;4.742;2022-11-15T14:56:16;13.90;99.90
10046;DHT22;5063;50.878;4.742;2022-11-15T14:58:42;13.90;99.90
10046;DHT22;5063;50.878;4.742;2022-11-15T15:01:24;13.70;99.90
10046;DHT22;5063;50.878;4.742;2022-11-15T15:03:50;13.70;99.90
10046;DHT22;5063;50.878;4.742;2022-11-15T15:06:18;13.70;99.90
10046;DHT22;5063;50.878;4.742;2022-11-15T15:08:45;13.60;99.90
10046;DHT22;5063;50.878;4.742;2022-11-15T15:11:25;13.60;99.90
10046;DHT22;5063;50.878;4.742;2022-11-15T15:13:52;13.60;99.90
10046;DHT22;5063;50.878;4.742;2022-11-15T15:16:19;13.60;99.90
10046;DHT22;5063;50.878;4.742;2022-11-15T15:18:45;13.60;99.90
10046;DHT22;5063;50.878;4.742;2022-11-15T15:21:20;13.50;99.90
10046;DHT22;5063;50.878;4.742;2022-11-15T15:23:47;13.40;99.90
10046;DHT22;5063;50.878;4.742;2022-11-15T15:26:13;13.40;99.90
10046;DHT22;5063;50.878;4.742;2022-11-15T15:28:38;13.40;99.90
10046;DHT22;5063;50.878;4.742;2022-11-15T15:31:05;13.40;99.90
10046;DHT22;5063;50.878;4.742;2022-11-15T15:33:31;13.30;99.90
10046;DHT22;5063;50.878;4.742;2022-11-15T15:35:57;13.30;99.90
10046;DHT22;5063;50.878;4.742;2022-11-15T15:38:22;13.30;99.90
10046;DHT22;5063;50.878;4.742;2022-11-15T15:40:48;13.30;99.90
10046;DHT22;5063;50.878;4.742;2022-11-15T15:43:14;13.30;99.90
10046;DHT22;5063;50.878;4.742;2022-11-15T15:45:41;13.30;99.90
10046;DHT22;5063;50.878;4.742;2022-11-15T15:48:15;13.20;99.90
10046;DHT22;5063;50.878;4.742;2022-11-15T15:50:41;13.30;99.90
10046;DHT22;5063;50.878;4.742;2022-11-15T15:53:12;13.30;99.90
10046;DHT22;5063;50.878;4.742;2022-11-15T15:55:38;13.20;99.90
10046;DHT22;5063;50.878;4.742;2022-11-15T15:58:05;13.20;99.90
10046;DHT22;5063;50.878;4.742;2022-11-15T16:00:31;13.20;99.90
10046;DHT22;5063;50.878;4.742;2022-11-15T16:02:59;13.20;99.90
10046;DHT22;5063;50.878;4.742;2022-11-15T16:05:25;13.10;99.90
10046;DHT22;5063;50.878;4.742;2022-11-15T16:07:50;13.10;99.90
10046;DHT22;5063;50.878;4.742;2022-11-15T16:12:43;13.10;99.90
10046;DHT22;5063;50.878;4.742;2022-11-15T16:15:09;13.00;99.90
10046;DHT22;5063;50.878;4.742;2022-11-15T16:17:38;13.00;99.90
10046;DHT22;5063;50.878;4.742;2022-11-15T16:20:05;13.00;99.90
10046;DHT22;5063;50.878;4.742;2022-11-15T16:22:31;12.90;99.90
10046;DHT22;5063;50.878;4.742;2022-11-15T16:24:57;12.90;99.90
10046;DHT22;5063;50.878;4.742;2022-11-15T16:27:23;12.90;99.90
10046;DHT22;5063;50.878;4.742;2022-11-15T16:29:49;12.90;99.90
10046;DHT22;5063;50.878;4.742;2022-11-15T16:32:15;12.80;99.90
10046;DHT22;5063;50.878;4.742;2022-11-15T16:34:42;12.90;99.90
10046;DHT22;5063;50.878;4.742;2022-11-15T16:37:34;12.90;99.90
10046;DHT22;5063;50.878;4.742;2022-11-15T16:40:00;12.90;99.90
10046;DHT22;5063;50.878;4.742;2022-11-15T16:42:25;12.90;99.90
10046;DHT22;5063;50.878;4.742;2022-11-15T16:44:51;12.90;99.90
10046;DHT22;5063;50.878;4.742;2022-11-15T16:47:18;12.90;99.90
10046;DHT22;5063;50.878;4.742;2022-11-15T16:49:47;12.90;99.90
10046;DHT22;5063;50.878;4.742;2022-11-15T16:52:13;12.80;99.90
10046;DHT22;5063;50.878;4.742;2022-11-15T16:54:39;12.90;99.90
10046;DHT22;5063;50.878;4.742;2022-11-15T16:57:05;12.80;99.90
10046;DHT22;5063;50.878;4.742;2022-11-15T16:59:30;12.80;99.90
10046;DHT22;5063;50.878;4.742;2022-11-15T17:01:58;12.90;99.90
10046;DHT22;5063;50.878;4.742;2022-11-15T17:04:23;12.90;99.90
10046;DHT22;5063;50.878;4.742;2022-11-15T17:06:49;12.90;99.90
10046;DHT22;5063;50.878;4.742;2022-11-15T17:09:20;12.90;99.90
10046;DHT22;5063;50.878;4.742;2022-11-15T17:11:48;12.90;99.90
10046;DHT22;5063;50.878;4.742;2022-11-15T17:14:14;13.00;99.90
10046;DHT22;5063;50.878;4.742;2022-11-15T17:16:40;13.00;99.90
10046;DHT22;5063;50.878;4.742;2022-11-15T17:19:18;13.00;99.90
10046;DHT22;5063;50.878;4.742;2022-11-15T17:21:45;13.00;99.90
10046;DHT22;5063;50.878;4.742;2022-11-15T17:24:12;13.00;99.90
10046;DHT22;5063;50.878;4.742;2022-11-15T17:26:37;13.10;99.90
10046;DHT22;5063;50.878;4.742;2022-11-15T17:29:04;13.10;99.90
10046;DHT22;5063;50.878;4.742;2022-11-15T17:31:35;13.10;99.90
10046;DHT22;5063;50.878;4.742;2022-11-15T17:34:03;13.20;99.90
10046;DHT22;5063;50.878;4.742;2022-11-15T17:36:29;13.20;99.90
10046;DHT22;5063;50.878;4.742;2022-11-15T17:38:56;13.20;99.90
10046;DHT22;5063;50.878;4.742;2022-11-15T17:41:22;13.10;99.90
10046;DHT22;5063;50.878;4.742;2022-11-15T17:43:47;13.10;99.90
10046;DHT22;5063;50.878;4.742;2022-11-15T17:46:16;13.10;99.90